createdAt,value
2023-04-29T00:00:02.041Z,14.40
2023-04-29T00:02:33.411Z,14.90
2023-04-29T00:05:02.482Z,15.40
2023-04-29T00:07:31.718Z,12.80
2023-04-29T00:10:00.869Z,14.30
2023-04-29T00:12:33.696Z,14.20
2023-04-29T00:15:03.128Z,14.70
2023-04-29T00:17:33.324Z,15.90
2023-04-29T00:20:04.412Z,12.20
2023-04-29T00:22:31.466Z,14.30
2023-04-29T00:24:58.912Z,14.20
2023-04-29T00:27:27.683Z,13.80
2023-04-29T00:29:55.332Z,15.50
2023-04-29T00:32:23.303Z,14.50
2023-04-29T00:34:51.206Z,14.40
2023-04-29T00:37:18.421Z,13.80
2023-04-29T00:39:45.352Z,14.10
2023-04-29T00:42:12.468Z,14.30
2023-04-29T00:44:40.203Z,14.40
2023-04-29T00:47:12.114Z,12.80
2023-04-29T00:49:40.253Z,14.30
2023-04-29T00:52:08.269Z,14.30
2023-04-29T00:54:37.380Z,12.60
2023-04-29T00:57:06.732Z,14.30
2023-04-29T00:59:38.066Z,12.70
2023-04-29T01:02:05.698Z,15.30
2023-04-29T01:04:32.904Z,14.40
2023-04-29T01:07:06.414Z,14.40
2023-04-29T01:09:55.677Z,14.40
2023-04-29T01:12:55.164Z,14.40
2023-04-29T01:15:26.970Z,14.50
2023-04-29T01:18:01.000Z,14.40
2023-04-29T01:20:29.108Z,14.30
2023-04-29T01:22:56.014Z,14.40
2023-04-29T01:25:23.856Z,14.30
2023-04-29T01:28:25.218Z,14.30
2023-04-29T01:31:10.399Z,14.30
2023-04-29T01:34:13.161Z,14.30
2023-04-29T01:36:59.838Z,13.60
2023-04-29T01:39:39.218Z,13.80
2023-04-29T01:42:38.701Z,14.10
2023-04-29T01:45:14.596Z,15.90
2023-04-29T01:47:44.862Z,14.20
2023-04-29T01:50:15.109Z,12.40
2023-04-29T01:52:44.100Z,13.20
2023-04-29T01:55:13.844Z,15.00
2023-04-29T01:57:44.763Z,14.90
2023-04-29T02:00:12.798Z,14.20
2023-04-29T02:02:46.183Z,14.20
2023-04-29T02:05:16.872Z,12.40
2023-04-29T02:07:51.661Z,15.10
2023-04-29T02:10:25.190Z,15.50
2023-04-29T02:12:57.514Z,13.80
2023-04-29T02:15:33.129Z,12.80
2023-04-29T02:18:03.886Z,14.40
2023-04-29T02:20:32.135Z,13.00
2023-04-29T02:22:59.619Z,12.40
2023-04-29T02:25:28.160Z,12.60
2023-04-29T02:27:58.735Z,14.50
2023-04-29T02:30:28.448Z,13.20
2023-04-29T02:32:56.623Z,15.40
2023-04-29T02:35:24.658Z,13.90
2023-04-29T02:37:54.938Z,12.90
2023-04-29T02:40:26.879Z,13.30
2023-04-29T02:42:55.213Z,12.80
2023-04-29T02:45:23.242Z,12.40
2023-04-29T02:47:51.489Z,13.30
2023-04-29T02:50:20.500Z,13.10
2023-04-29T02:52:53.438Z,13.60
2023-04-29T02:55:23.241Z,12.60
2023-04-29T02:57:53.928Z,14.30
2023-04-29T03:00:23.142Z,15.90
2023-04-29T03:02:53.786Z,13.50
2023-04-29T03:05:21.467Z,12.80
2023-04-29T03:07:48.470Z,13.50
2023-04-29T03:10:16.241Z,13.50
2023-04-29T03:12:44.365Z,13.60
2023-04-29T03:15:11.683Z,13.40
2023-04-29T03:17:39.283Z,13.50
2023-04-29T03:20:08.436Z,13.60
2023-04-29T03:22:36.537Z,13.30
2023-04-29T03:25:04.375Z,12.70
2023-04-29T03:27:33.398Z,13.20
2023-04-29T03:30:02.943Z,15.60
2023-04-29T03:32:32.476Z,13.60
2023-04-29T03:35:04.447Z,13.70
2023-04-29T03:37:32.852Z,12.10
2023-04-29T03:40:00.964Z,13.60
2023-04-29T03:42:30.039Z,13.70
2023-04-29T03:44:58.567Z,11.80
2023-04-29T03:47:27.312Z,12.00
2023-04-29T03:49:55.460Z,13.10
2023-04-29T03:52:24.528Z,13.10
2023-04-29T03:54:52.980Z,12.00
2023-04-29T03:57:21.441Z,13.50
2023-04-29T03:59:51.351Z,13.00
2023-04-29T04:02:20.939Z,15.40
2023-04-29T04:04:49.858Z,13.30
2023-04-29T04:07:19.313Z,14.30
2023-04-29T04:09:47.044Z,13.10
2023-04-29T04:12:14.976Z,14.70
2023-04-29T04:14:42.345Z,13.10
2023-04-29T04:17:09.343Z,13.30
2023-04-29T04:19:37.926Z,13.00
2023-04-29T04:22:05.182Z,13.00
2023-04-29T04:24:32.273Z,11.40
2023-04-29T04:26:59.416Z,13.00
2023-04-29T04:29:28.020Z,13.10
2023-04-29T04:31:55.881Z,11.40
2023-04-29T04:34:23.964Z,11.60
2023-04-29T04:36:52.218Z,11.40
2023-04-29T04:39:19.722Z,13.90
2023-04-29T04:41:47.423Z,13.20
2023-04-29T04:44:14.569Z,13.30
2023-04-29T04:46:42.758Z,13.30
2023-04-29T04:49:10.225Z,11.70
2023-04-29T04:51:37.656Z,15.10
2023-04-29T04:54:04.768Z,13.60
2023-04-29T04:56:32.107Z,13.70
2023-04-29T04:58:59.074Z,13.70
2023-04-29T05:01:26.593Z,13.80
2023-04-29T05:03:53.905Z,13.80
2023-04-29T05:06:21.130Z,13.80
2023-04-29T05:08:48.686Z,13.80
2023-04-29T05:11:19.702Z,14.00
2023-04-29T05:13:47.368Z,14.20
2023-04-29T05:16:15.200Z,14.30
2023-04-29T05:18:46.828Z,14.40
2023-04-29T05:21:16.473Z,14.50
2023-04-29T05:23:45.206Z,12.90
2023-04-29T05:26:12.133Z,14.60
2023-04-29T05:28:39.414Z,14.70
2023-04-29T05:31:06.450Z,14.80
2023-04-29T05:33:33.879Z,15.00
2023-04-29T05:36:01.509Z,15.10
2023-04-29T05:38:29.089Z,15.20
2023-04-29T05:40:56.860Z,15.40
2023-04-29T05:43:24.581Z,15.60
2023-04-29T05:45:51.563Z,15.60
2023-04-29T05:48:18.541Z,15.80
2023-04-29T05:50:45.760Z,16.00
2023-04-29T05:53:12.861Z,16.10
2023-04-29T05:55:40.742Z,16.30
2023-04-29T05:58:07.992Z,16.40
2023-04-29T06:00:34.951Z,16.40
2023-04-29T06:03:02.415Z,16.50
2023-04-29T06:05:29.696Z,16.80
2023-04-29T06:07:57.067Z,16.90
2023-04-29T06:10:23.920Z,17.00
2023-04-29T06:12:51.890Z,17.00
2023-04-29T06:15:19.129Z,17.00
2023-04-29T06:17:47.332Z,17.10
2023-04-29T06:20:14.458Z,17.10
2023-04-29T06:22:41.441Z,17.00
2023-04-29T06:25:08.780Z,17.20
2023-04-29T06:27:37.030Z,17.20
2023-04-29T06:30:04.173Z,17.20
2023-04-29T06:32:31.266Z,17.30
2023-04-29T06:34:58.207Z,17.50
2023-04-29T06:37:25.095Z,17.70
2023-04-29T06:39:52.065Z,17.90
2023-04-29T06:42:19.618Z,18.10
2023-04-29T06:44:46.545Z,18.30
2023-04-29T06:47:13.660Z,18.50
2023-04-29T06:49:40.838Z,18.50
2023-04-29T06:52:08.225Z,18.50
2023-04-29T06:54:35.933Z,18.50
2023-04-29T06:57:02.838Z,18.50
2023-04-29T06:59:30.164Z,18.50
2023-04-29T07:01:57.111Z,18.60
2023-04-29T07:04:24.082Z,18.60
2023-04-29T07:06:51.540Z,18.70
2023-04-29T07:09:18.414Z,18.80
2023-04-29T07:11:45.569Z,18.90
2023-04-29T07:14:12.440Z,19.10
2023-04-29T07:16:39.790Z,19.00
2023-04-29T07:19:06.813Z,19.00
2023-04-29T07:21:33.729Z,19.30
2023-04-29T07:24:04.985Z,19.60
2023-04-29T07:26:32.042Z,19.90
2023-04-29T07:28:58.983Z,20.00
2023-04-29T07:31:26.073Z,20.30
2023-04-29T07:33:53.414Z,20.40
2023-04-29T07:36:20.396Z,20.20
2023-04-29T07:38:47.324Z,20.20
2023-04-29T07:41:14.237Z,20.30
2023-04-29T07:43:42.437Z,20.40
2023-04-29T07:46:10.057Z,20.60
2023-04-29T07:48:39.397Z,20.80
2023-04-29T07:51:14.569Z,20.90
2023-04-29T07:53:42.077Z,21.10
2023-04-29T07:56:09.630Z,21.20
2023-04-29T07:58:36.971Z,21.40
2023-04-29T08:01:12.114Z,21.70
2023-04-29T08:03:41.532Z,21.90
2023-04-29T08:06:09.254Z,22.00
2023-04-29T08:08:36.909Z,22.20
2023-04-29T08:11:04.090Z,22.30
2023-04-29T08:13:33.541Z,22.40
2023-04-29T08:16:00.530Z,22.70
2023-04-29T08:18:28.064Z,22.80
2023-04-29T08:20:54.943Z,22.60
2023-04-29T08:23:21.848Z,22.80
2023-04-29T08:25:51.895Z,22.90
2023-04-29T08:28:19.720Z,23.00
2023-04-29T08:30:46.775Z,23.10
2023-04-29T08:33:14.583Z,23.30
2023-04-29T08:35:42.164Z,23.30
2023-04-29T08:38:10.337Z,23.30
2023-04-29T08:40:42.636Z,23.10
2023-04-29T08:43:15.422Z,22.90
2023-04-29T08:45:43.893Z,22.90
2023-04-29T08:48:11.803Z,23.30
2023-04-29T08:50:41.490Z,23.40
2023-04-29T08:53:09.932Z,23.40
2023-04-29T08:55:41.546Z,23.60
2023-04-29T08:58:10.398Z,23.70
2023-04-29T09:00:37.981Z,23.90
2023-04-29T09:03:11.357Z,23.90
2023-04-29T09:05:41.972Z,24.10
2023-04-29T09:08:10.052Z,24.10
2023-04-29T09:10:38.689Z,24.30
2023-04-29T09:13:06.071Z,24.40
2023-04-29T09:15:37.916Z,24.50
2023-04-29T09:18:06.052Z,24.60
2023-04-29T09:20:33.175Z,24.60
2023-04-29T09:23:03.636Z,24.60
2023-04-29T09:25:31.565Z,24.40
2023-04-29T09:27:58.666Z,24.50
2023-04-29T09:30:26.073Z,24.60
2023-04-29T09:33:09.801Z,24.30
2023-04-29T09:35:37.023Z,24.30
2023-04-29T09:38:15.044Z,24.30
2023-04-29T09:40:58.186Z,24.30
2023-04-29T09:43:26.385Z,24.60
2023-04-29T09:45:53.646Z,25.00
2023-04-29T09:48:21.080Z,25.40
2023-04-29T09:51:03.368Z,25.90
2023-04-29T09:53:31.864Z,26.20
2023-04-29T09:56:03.648Z,26.30
2023-04-29T09:58:38.339Z,26.70
2023-04-29T10:01:08.469Z,26.70
2023-04-29T10:03:38.394Z,26.70
2023-04-29T10:06:07.681Z,26.40
2023-04-29T10:08:37.745Z,26.50
2023-04-29T10:11:06.163Z,26.50
2023-04-29T10:13:38.538Z,26.40
2023-04-29T10:16:11.802Z,26.40
2023-04-29T10:18:41.934Z,26.30
2023-04-29T10:21:12.205Z,26.30
2023-04-29T10:23:39.768Z,26.40
2023-04-29T10:26:13.882Z,26.40
2023-04-29T10:28:42.567Z,26.60
2023-04-29T10:31:10.490Z,26.80
2023-04-29T10:33:40.212Z,26.90
2023-04-29T10:36:09.451Z,27.00
2023-04-29T10:38:44.220Z,26.90
2023-04-29T10:41:28.817Z,26.90
2023-04-29T10:44:03.526Z,26.90
2023-04-29T10:46:31.391Z,26.80
2023-04-29T10:49:02.731Z,26.90
2023-04-29T10:51:34.649Z,26.70
2023-04-29T10:54:03.998Z,26.60
2023-04-29T10:56:40.899Z,26.50
2023-04-29T10:59:42.934Z,26.40
2023-04-29T11:02:14.934Z,26.70
2023-04-29T11:05:12.922Z,27.00
2023-04-29T11:07:41.071Z,26.70
2023-04-29T11:10:08.651Z,26.70
2023-04-29T11:12:35.890Z,26.60
2023-04-29T11:15:06.107Z,27.10
2023-04-29T11:17:38.281Z,27.50
2023-04-29T11:20:14.739Z,28.00
2023-04-29T11:22:51.185Z,28.50
2023-04-29T11:25:18.840Z,28.90
2023-04-29T11:27:48.446Z,28.60
2023-04-29T11:30:16.919Z,28.70
2023-04-29T11:32:43.978Z,28.80
2023-04-29T11:35:19.707Z,29.20
2023-04-29T11:37:47.672Z,29.40
2023-04-29T11:40:16.955Z,30.20
2023-04-29T11:42:46.115Z,31.60
2023-04-29T11:45:13.336Z,32.60
2023-04-29T11:47:45.294Z,33.20
2023-04-29T11:50:13.046Z,33.30
2023-04-29T11:52:41.671Z,33.50
2023-04-29T11:55:12.587Z,34.00
2023-04-29T11:57:40.633Z,34.10
2023-04-29T12:00:14.373Z,34.60
2023-04-29T12:02:46.419Z,35.20
2023-04-29T12:05:15.874Z,35.00
2023-04-29T12:07:43.734Z,33.90
2023-04-29T12:10:12.014Z,34.30
2023-04-29T12:12:44.225Z,34.60
2023-04-29T12:15:11.813Z,35.00
2023-04-29T12:17:39.565Z,35.40
2023-04-29T12:20:11.094Z,35.80
2023-04-29T12:22:38.174Z,36.30
2023-04-29T12:25:05.800Z,36.50
2023-04-29T12:27:34.562Z,37.80
2023-04-29T12:30:01.605Z,37.50
2023-04-29T12:32:33.663Z,36.10
2023-04-29T12:35:01.132Z,34.90
2023-04-29T12:37:30.958Z,34.30
2023-04-29T12:39:57.992Z,34.80
2023-04-29T12:42:31.890Z,34.80
2023-04-29T12:44:59.025Z,35.10
2023-04-29T12:47:33.890Z,35.50
2023-04-29T12:50:01.348Z,35.40
2023-04-29T12:52:28.350Z,36.50
2023-04-29T12:54:57.413Z,37.90
2023-04-29T12:57:26.492Z,38.20
2023-04-29T12:59:53.625Z,39.00
2023-04-29T13:02:20.689Z,39.40
2023-04-29T13:04:47.910Z,39.10
2023-04-29T13:07:15.030Z,39.60
2023-04-29T13:09:42.424Z,38.90
2023-04-29T13:12:09.705Z,38.30
2023-04-29T13:14:37.132Z,37.50
2023-04-29T13:17:04.688Z,37.60
2023-04-29T13:19:48.087Z,36.70
2023-04-29T13:22:18.341Z,36.30
2023-04-29T13:24:45.281Z,38.20
2023-04-29T13:27:12.233Z,39.60
2023-04-29T13:29:39.499Z,39.60
2023-04-29T13:32:06.643Z,39.80
2023-04-29T13:34:33.639Z,40.00
2023-04-29T13:37:00.941Z,39.30
2023-04-29T13:39:27.782Z,38.60
2023-04-29T13:41:59.018Z,38.10
2023-04-29T13:44:34.234Z,39.50
2023-04-29T13:47:06.926Z,41.00
2023-04-29T13:50:05.743Z,43.30
2023-04-29T13:55:25.210Z,42.40
2023-04-29T13:58:31.111Z,42.50
2023-04-29T14:01:01.365Z,44.70
2023-04-29T14:03:12.978Z,45.20
2023-04-29T14:05:40.261Z,43.40
2023-04-29T14:08:07.366Z,44.10
2023-04-29T14:10:34.982Z,46.10
2023-04-29T14:13:03.243Z,48.10
2023-04-29T14:15:30.919Z,48.10
2023-04-29T14:17:57.884Z,47.40
2023-04-29T14:20:24.800Z,47.60
2023-04-29T14:22:51.678Z,46.90
2023-04-29T14:25:19.002Z,46.70
2023-04-29T14:27:46.342Z,46.40
2023-04-29T14:30:13.714Z,46.30
2023-04-29T14:32:40.702Z,46.20
2023-04-29T14:35:08.770Z,46.70
2023-04-29T14:37:35.923Z,47.40
2023-04-29T14:40:03.962Z,48.20
2023-04-29T14:42:32.414Z,46.80
2023-04-29T14:44:59.800Z,46.50
2023-04-29T14:47:27.159Z,47.20
2023-04-29T14:49:54.452Z,48.10
2023-04-29T14:52:21.899Z,47.80
2023-04-29T14:54:48.782Z,46.80
2023-04-29T14:57:15.739Z,47.20
2023-04-29T14:59:42.706Z,46.20
2023-04-29T15:02:09.616Z,45.00
2023-04-29T15:04:38.129Z,42.50
2023-04-29T15:07:06.028Z,41.70
2023-04-29T15:09:34.001Z,41.90
2023-04-29T15:12:00.862Z,40.40
2023-04-29T15:14:28.110Z,38.50
2023-04-29T15:16:55.352Z,39.40
2023-04-29T15:19:25.113Z,40.90
2023-04-29T15:21:52.533Z,41.70
2023-04-29T15:24:19.844Z,42.70
2023-04-29T15:26:47.206Z,43.30
2023-04-29T15:29:14.198Z,42.70
2023-04-29T15:31:41.235Z,43.70
2023-04-29T15:34:08.549Z,44.20
2023-04-29T15:36:35.509Z,44.00
2023-04-29T15:39:02.724Z,42.00
2023-04-29T15:41:29.840Z,41.80
2023-04-29T15:43:57.712Z,41.50
2023-04-29T15:46:24.635Z,41.60
2023-04-29T15:48:51.917Z,42.00
2023-04-29T15:51:18.921Z,42.20
2023-04-29T15:53:45.900Z,42.80
2023-04-29T15:56:13.365Z,44.30
2023-04-29T15:58:40.524Z,45.10
2023-04-29T16:01:07.853Z,46.10
2023-04-29T16:03:35.236Z,46.50
2023-04-29T16:06:02.206Z,46.00
2023-04-29T16:08:29.564Z,45.10
2023-04-29T16:10:56.546Z,44.60
2023-04-29T16:13:23.493Z,44.60
2023-04-29T16:15:50.530Z,43.80
2023-04-29T16:18:17.997Z,43.00
2023-04-29T16:20:45.568Z,42.00
2023-04-29T16:23:12.512Z,42.10
2023-04-29T16:25:41.914Z,42.70
2023-04-29T16:28:08.768Z,41.70
2023-04-29T16:30:36.267Z,41.70
2023-04-29T16:33:03.280Z,41.60
2023-04-29T16:35:31.075Z,41.10
2023-04-29T16:37:58.230Z,40.60
2023-04-29T16:40:25.238Z,40.00
2023-04-29T16:42:53.505Z,39.30
2023-04-29T16:45:23.624Z,39.30
2023-04-29T16:47:50.853Z,39.30
2023-04-29T16:50:18.092Z,38.90
2023-04-29T16:52:45.139Z,38.30
2023-04-29T16:55:12.943Z,37.80
2023-04-29T16:57:39.857Z,37.20
2023-04-29T17:00:11.198Z,36.20
2023-04-29T17:02:40.445Z,35.70
2023-04-29T17:05:09.312Z,35.20
2023-04-29T17:07:36.368Z,34.40
2023-04-29T17:10:04.035Z,33.60
2023-04-29T17:12:30.944Z,33.80
2023-04-29T17:14:57.886Z,33.00
2023-04-29T17:17:24.874Z,32.10
2023-04-29T17:19:52.141Z,30.70
2023-04-29T17:22:19.943Z,29.20
2023-04-29T17:24:47.031Z,28.10
2023-04-29T17:27:14.102Z,27.30
2023-04-29T17:29:41.382Z,26.70
2023-04-29T17:32:13.475Z,26.30
2023-04-29T17:34:40.958Z,25.80
2023-04-29T17:37:08.266Z,25.20
2023-04-29T17:39:35.806Z,24.70
2023-04-29T17:42:02.674Z,24.30
2023-04-29T17:44:29.601Z,24.10
2023-04-29T17:46:56.520Z,23.70
2023-04-29T17:49:23.450Z,23.40
2023-04-29T17:51:50.389Z,23.10
2023-04-29T17:54:17.340Z,22.80
2023-04-29T17:56:44.279Z,22.50
2023-04-29T17:59:11.876Z,22.30
2023-04-29T18:01:39.053Z,22.00
2023-04-29T18:04:06.308Z,21.90
2023-04-29T18:06:33.410Z,21.70
2023-04-29T18:09:00.413Z,21.60
2023-04-29T18:11:27.426Z,21.60
2023-04-29T18:13:54.728Z,21.50
2023-04-29T18:16:21.836Z,21.50
2023-04-29T18:18:53.426Z,21.40
2023-04-29T18:21:27.322Z,21.30
2023-04-29T18:23:55.017Z,21.10
2023-04-29T18:26:22.074Z,21.00
2023-04-29T18:28:49.564Z,20.90
2023-04-29T18:31:17.988Z,20.80
2023-04-29T18:33:45.526Z,20.60
2023-04-29T18:36:14.187Z,20.50
2023-04-29T18:38:41.380Z,20.40
2023-04-29T18:41:08.717Z,20.30
2023-04-29T18:43:36.645Z,20.10
2023-04-29T18:46:04.060Z,20.00
2023-04-29T18:48:31.316Z,20.00
2023-04-29T18:51:00.294Z,19.80
2023-04-29T18:53:27.687Z,19.70
2023-04-29T18:55:54.649Z,19.50
2023-04-29T18:58:22.194Z,19.40
2023-04-29T19:00:49.216Z,19.30
2023-04-29T19:03:16.505Z,19.20
2023-04-29T19:05:43.589Z,19.10
2023-04-29T19:08:10.638Z,18.90
2023-04-29T19:10:37.529Z,18.90
2023-04-29T19:13:04.640Z,18.80
2023-04-29T19:15:32.133Z,18.70
2023-04-29T19:17:59.141Z,18.70
2023-04-29T19:20:26.797Z,18.60
2023-04-29T19:22:53.705Z,18.50
2023-04-29T19:25:21.263Z,18.40
2023-04-29T19:27:49.170Z,18.20
2023-04-29T19:30:16.777Z,18.10
2023-04-29T19:32:45.639Z,18.00
2023-04-29T19:35:13.117Z,18.00
2023-04-29T19:37:40.648Z,17.90
2023-04-29T19:40:10.686Z,17.90
2023-04-29T19:42:39.495Z,17.80
2023-04-29T19:45:07.979Z,17.70
2023-04-29T19:47:37.822Z,16.80
2023-04-29T19:50:15.135Z,17.50
2023-04-29T19:52:42.608Z,17.00
2023-04-29T19:55:10.098Z,17.30
2023-04-29T19:57:38.720Z,17.10
2023-04-29T20:00:07.863Z,17.10
2023-04-29T20:02:35.322Z,17.00
2023-04-29T20:11:02.579Z,16.80
2023-04-29T20:19:56.728Z,16.70
2023-04-29T20:31:11.159Z,16.90
2023-04-29T20:33:38.686Z,16.90
2023-04-29T20:36:06.870Z,16.80
2023-04-29T20:38:35.525Z,16.80
2023-04-29T20:41:03.499Z,16.70
2023-04-29T20:43:31.045Z,16.70
2023-04-29T20:45:58.993Z,16.70
2023-04-29T20:51:01.800Z,16.50
2023-04-29T20:53:28.955Z,16.40
2023-04-29T20:55:55.845Z,16.50
2023-04-29T20:58:22.960Z,16.50
2023-04-29T21:00:49.923Z,16.40
2023-04-29T21:06:02.555Z,16.50
2023-04-29T21:08:29.510Z,15.90
2023-04-29T21:10:56.887Z,16.30
2023-04-29T21:13:23.938Z,16.20
2023-04-29T21:15:51.016Z,16.10
2023-04-29T21:18:18.120Z,16.20
2023-04-29T21:20:45.758Z,16.10
2023-04-29T21:23:13.119Z,16.00
2023-04-29T21:25:40.564Z,16.00
2023-04-29T21:28:07.447Z,16.10
2023-04-29T21:30:34.515Z,16.00
2023-04-29T21:33:02.104Z,16.00
2023-04-29T21:35:29.482Z,16.00
2023-04-29T21:37:56.692Z,16.00
2023-04-29T21:40:26.464Z,16.10
2023-04-29T21:42:55.384Z,16.10
2023-04-29T21:45:22.883Z,16.00
2023-04-29T21:47:53.116Z,15.80
2023-04-29T21:50:25.377Z,15.60
2023-04-29T21:52:53.935Z,17.10
2023-04-29T21:55:21.308Z,15.50
2023-04-29T21:57:48.512Z,15.50
2023-04-29T22:00:33.231Z,15.30
2023-04-29T22:03:01.716Z,15.30
2023-04-29T22:05:29.667Z,15.30
2023-04-29T22:07:59.169Z,15.40
2023-04-29T22:10:26.290Z,15.30
2023-04-29T22:12:54.147Z,15.40
2023-04-29T22:15:29.091Z,15.40
2023-04-29T22:17:59.416Z,15.30
2023-04-29T22:20:37.702Z,16.50
2023-04-29T22:23:05.359Z,13.70
2023-04-29T22:25:32.428Z,14.50
2023-04-29T22:27:59.408Z,15.60
2023-04-29T22:30:26.318Z,15.60
2023-04-29T22:32:53.247Z,15.50
2023-04-29T22:35:20.368Z,15.50
2023-04-29T22:37:50.658Z,15.30
2023-04-29T22:40:17.861Z,15.30
2023-04-29T22:42:52.249Z,15.20
2023-04-29T22:45:19.551Z,14.70
2023-04-29T22:47:46.608Z,15.30
2023-04-29T22:50:14.555Z,15.20
2023-04-29T22:52:41.981Z,15.30
2023-04-29T22:55:09.754Z,15.30
2023-04-29T22:57:37.077Z,15.40
2023-04-29T23:00:04.270Z,15.50
2023-04-29T23:02:31.292Z,15.50
2023-04-29T23:05:04.376Z,15.60
2023-04-29T23:07:31.938Z,15.60
2023-04-29T23:09:58.893Z,15.70
2023-04-29T23:12:25.855Z,15.80
2023-04-29T23:14:53.757Z,15.70
2023-04-29T23:17:21.037Z,15.70
2023-04-29T23:19:47.884Z,15.60
2023-04-29T23:22:17.089Z,15.50
2023-04-29T23:24:44.288Z,15.30
2023-04-29T23:27:11.671Z,15.30
2023-04-29T23:29:41.879Z,15.20
2023-04-29T23:32:09.942Z,15.20
2023-04-29T23:34:40.035Z,13.50
2023-04-29T23:37:06.869Z,15.30
2023-04-29T23:39:33.890Z,15.40
2023-04-29T23:42:01.366Z,15.70
2023-04-29T23:44:28.862Z,15.40
2023-04-29T23:46:57.098Z,15.30
2023-04-29T23:49:24.272Z,15.40
2023-04-29T23:51:56.842Z,15.40
2023-04-29T23:54:24.104Z,15.40
2023-04-29T23:56:51.438Z,16.60
2023-04-29T23:59:18.742Z,15.40
